• Join FlightAware (Why Join?)
  • Login
  • US Flag 
09:31PM EDT


 

Airport Tracker/Info


-or-


 

Live Flight TrackerFlight Track Log ✈ N95445 ✈ 20-Aug-2013 ✈ KMFD - KTOL

Flight Track Log - Related Links

Times and Time Zones

All times are in EDT time to prevent confusion due to time zone crossing. See the N95445 flight status page for this flight to view local times or setup timezone preferences in your user account.

Time Position Orientation Groundspeed Altitude Reporting Facility
EDT Latitude Longitude Course Direction KTS MPH feet Rate Location/Type
12:02PM 41.0062 -82.8234 309° West  Level Estimated
12:03PM 41.0293 -82.8619 308° West  Level Estimated
12:04PM 41.0523 -82.9004 308° West  Level Estimated
12:05PM 41.0753 -82.9389 308° West  Level Estimated
12:06PM 41.0983 -82.9775 308° West  Level Estimated
12:07PM 41.1213 -83.0161 308° West  Level Estimated
12:08PM 41.1443 -83.0546 308° West  Level Estimated
12:09PM 41.1672 -83.0933 308° West  Level Estimated
12:10PM 41.1902 -83.1319 308° West  Level Estimated
12:11PM 41.2131 -83.1706 308° West  Level Estimated
12:12PM 41.2360 -83.2093 308° West  Level Estimated
12:13PM 41.2590 -83.2481 308° West  Level Estimated
12:14PM 41.2819 -83.2868 308° West  Level Estimated
12:15PM 41.3047 -83.3256 308° West  Level Estimated
12:16PM 41.3276 -83.3645 308° West  Level Estimated
12:17PM 41.3505 -83.4033 308° West  Level Estimated
12:18PM 41.3733 -83.4422 308° West  Level Estimated
12:19PM 41.3962 -83.4811 308° West  Level Estimated
12:20PM 41.4190 -83.5200 308° West  Level Estimated
12:21PM 41.4418 -83.5590 308° West  Level Estimated
12:22PM 41.4646 -83.5980 308° West  Level Estimated
12:23PM 41.4874 -83.6370 308° West  Level Estimated
12:24PM 41.5102 -83.6760 308° West  Level Estimated
12:25PM 41.5329 -83.7151 308° West  Level Estimated
12:26PM 41.5556 -83.7542 308° West  Level Estimated
12:27PM 41.5784 -83.7933 308° West  Level Estimated
12:28PM 41.5868 -83.8078 308° West  Level Estimated
12:29PM 41.5868 -83.8078 209° Southwest  Level Estimated
12:30PM 41.5868 -83.8078 209° Southwest  Level Estimated
12:31PM 41.5868 -83.8078 209° Southwest  Level Estimated
12:32PM 41.5868 -83.8078 209° Southwest  Level Estimated
12:33PM 41.5868 -83.8078 209° Southwest  Level Estimated
12:34PM 41.5868 -83.8078 209° Southwest  Level Estimated
12:35PM 41.5868 -83.8078 209° Southwest  Level Estimated
12:36PM 41.5868 -83.8078 209° Southwest  Level Estimated
12:37PM 41.5868 -83.8078 209° Southwest  Level Estimated
12:38PM 41.5868 -83.8078 209° Southwest  Level Estimated
12:39PM 41.5868 -83.8078 209° Southwest  Level Estimated
12:40PM 41.5868 -83.8078 209° Southwest  Level Estimated
12:41PM 41.5868 -83.8078 209° Southwest  Level Estimated
12:42PM 41.5868 -83.8078 209° Southwest  Level Estimated
12:43PM 41.5868 -83.8078 209° Southwest  Level Estimated